Home   Weather   Switzerland   Kreuzlingen   Past weeks
Flag for Switzerland

Past Weather in Kreuzlingen, Thurgau, Switzerland — Yesterday and Last 2 Weeks

Currently: 63 °F. Clear. (Weather station: Friedrichshafen Airport, Switzerland). See more current weather

Past Weather in Kreuzlingen — Graph

°F

Kreuzlingen Temperature Yesterday

Maximum temperature yesterday: 84 °F (at 3:20 pm)
Minimum temperature yesterday: 54 °F (at 3:50 am)
Average temperature yesterday: 69 °F

High & Low Weather Summary for the Past Weeks

 TemperatureHumidityPressure
High84 °F (Jun 15, 3:20 pm)100% (Jun 4, 2:50 am)30.30 "Hg (Jun 4, 2:50 am)
Low45 °F (Jun 1, 3:50 am)25% (Jun 15, 3:20 pm)29.92 "Hg (Jun 1, 6:20 pm)
Average65 °F72%30.14 "Hg
* Reported Jun 1 12:20 am — Jun 16 12:20 am, Kreuzlingen. Weather by CustomWeather, © 2021

Note: Actual official high and low records may vary slightly from our data, if they occured in-between our weather recording intervals... More about our weather records

Kreuzlingen Weather History for the Previous 24 Hours

Scroll right to see more
 ConditionsComfort  
Time TempWeatherWind HumidityBarometerVisibility
12:20 am
Wed, Jun 16
63 °FClear.2 mph73%30.04 "HgN/A
11:50 pm
Tue, Jun 15
64 °FClear.1 mph68%30.07 "HgN/A
11:20 pm63 °FClear.1 mph77%30.07 "HgN/A
10:50 pm66 °FClear.2 mph60%30.07 "HgN/A
10:20 pm64 °FClear.2 mph73%30.07 "HgN/A
9:50 pm66 °FClear.3 mph68%30.07 "HgN/A
9:20 pm72 °FSunny.3 mph53%30.04 "HgN/A
8:50 pm75 °FSunny.2 mph44%30.04 "HgN/A
8:20 pm79 °FSunny.3 mph39%30.04 "HgN/A
7:50 pm82 °FPassing clouds.5 mph32%30.04 "HgN/A
7:20 pm84 °FSunny.5 mph25%30.04 "Hg10 mi
6:50 pm84 °FPassing clouds.5 mph25%30.04 "HgN/A
6:20 pm84 °FSunny.5 mph25%30.04 "Hg10 mi
5:50 pm84 °FPassing clouds.5 mph25%30.07 "HgN/A
5:20 pm84 °FPassing clouds.5 mph33%30.07 "HgN/A
4:50 pm84 °FPassing clouds.6 mph27%30.07 "HgN/A
4:20 pm84 °FSunny.2 mph31%30.07 "Hg10 mi
3:50 pm84 °FPassing clouds.5 mph29%30.07 "HgN/A
3:20 pm84 °FSunny.6 mph25%30.07 "Hg10 mi
2:50 pm82 °FPassing clouds.5 mph32%30.09 "HgN/A
2:20 pm82 °FSunny.5 mph35%30.09 "Hg10 mi
1:50 pm82 °FPassing clouds.5 mph32%30.09 "HgN/A
1:20 pm81 °FPassing clouds.5 mph39%30.09 "HgN/A
12:50 pm79 °FSunny.6 mph45%30.09 "Hg10 mi
12:20 pm77 °FSunny.5 mph54%30.09 "Hg10 mi
11:50 am75 °FPassing clouds.5 mph54%30.09 "HgN/A
11:20 am73 °FPassing clouds.5 mph57%30.09 "HgN/A
10:50 am73 °FSunny.6 mph53%30.09 "Hg10 mi
10:20 am72 °FSunny.2 mph57%30.09 "Hg10 mi
9:50 am70 °FSunny.2 mph60%30.09 "Hg10 mi
9:20 am68 °FPassing clouds.3 mph60%30.12 "HgN/A
8:50 am66 °FPassing clouds.3 mph64%30.12 "HgN/A
8:20 am63 °FSunny.5 mph73%30.12 "Hg10 mi
7:50 am61 °FSunny.3 mph77%30.12 "Hg10 mi
7:20 am59 °FSunny.5 mph77%30.12 "Hg10 mi
6:50 am55 °FSunny.7 mph88%30.12 "Hg10 mi
6:20 am54 °FSunny.5 mph94%30.12 "HgN/A
5:50 am54 °FSunny.3 mph88%30.09 "HgN/A
5:20 am54 °FClear.5 mph88%30.09 "HgN/A
4:50 am54 °FClear.5 mph88%30.09 "HgN/A
4:20 am54 °FClear.2 mph94%30.09 "HgN/A
3:50 am54 °FClear.2 mph94%30.09 "HgN/A
3:20 am55 °FClear.3 mph88%30.09 "HgN/A
2:50 am55 °FClear.2 mph88%30.09 "HgN/A
2:20 am57 °FClear.3 mph82%30.12 "HgN/A
1:50 am59 °FClear.6 mph77%30.09 "HgN/A
1:20 am57 °FClear.3 mph82%30.12 "HgN/A
Weather by CustomWeather, © 2021

See weather overview